Time;durP1;ratioP1;P1;durP2;ratioP2;P2;SDS_P1;SDS_P2;PMS_P1;PMS_P2;Temp;Humidity;BMP_temperature;BMP_pressure;BME280_temperature;BME280_humidity;BME280_pressure;Samples;Min_cycle;Max_cycle;Signal;HPM_P1;HPM_P2
2022/03/17 00:01:48;;;;;;;29.15;16.70;;;10.30;99.90;;;;;;5036119;28;20052;-77
2022/03/17 00:04:14;;;;;;;30.17;17.23;;;10.20;99.90;;;;;;5018098;28;20079;-77
2022/03/17 00:06:41;;;;;;;28.65;17.27;;;10.30;99.90;;;;;;5017408;28;20051;-77
2022/03/17 00:09:07;;;;;;;25.60;16.38;;;10.20;99.90;;;;;;5018265;28;20052;-77
2022/03/17 00:11:34;;;;;;;29.55;16.02;;;10.30;99.90;;;;;;5035881;28;20128;-77
2022/03/17 00:14:01;;;;;;;25.75;15.52;;;10.30;99.90;;;;;;5018065;28;20084;-77
2022/03/17 00:16:28;;;;;;;28.65;15.88;;;10.20;99.90;;;;;;5017876;28;20453;-77
2022/03/17 00:18:55;;;;;;;28.20;16.63;;;10.20;99.90;;;;;;5035779;28;20049;-77
2022/03/17 00:21:22;;;;;;;30.85;18.05;;;10.20;99.90;;;;;;5017879;28;20057;-77
2022/03/17 00:23:48;;;;;;;27.83;16.58;;;10.20;99.90;;;;;;5035569;28;20041;-77
2022/03/17 00:26:14;;;;;;;25.38;16.05;;;10.20;99.90;;;;;;5035392;28;20044;-77
2022/03/17 00:28:39;;;;;;;30.73;17.27;;;10.20;99.90;;;;;;5017538;28;20061;-77
2022/03/17 00:31:05;;;;;;;27.67;16.77;;;10.10;99.90;;;;;;5017858;28;20049;-77
2022/03/17 00:33:31;;;;;;;30.05;17.92;;;10.10;99.90;;;;;;5017551;28;20046;-77
2022/03/17 00:35:56;;;;;;;28.10;17.08;;;10.10;99.90;;;;;;5017369;28;20045;-77
2022/03/17 00:38:22;;;;;;;27.63;16.40;;;10.20;99.90;;;;;;5017672;28;20037;-77
2022/03/17 00:40:48;;;;;;;29.83;17.33;;;10.20;99.90;;;;;;5035334;28;20045;-77
2022/03/17 00:43:15;;;;;;;28.02;17.42;;;10.20;99.90;;;;;;5017636;28;20057;-77
2022/03/17 00:45:44;;;;;;;27.63;16.35;;;10.10;99.90;;;;;;5017538;28;20041;-77
2022/03/17 00:48:10;;;;;;;30.35;16.60;;;10.10;99.90;;;;;;5017344;28;20049;-77
2022/03/17 00:50:36;;;;;;;29.45;17.48;;;10.10;99.90;;;;;;5017386;28;20060;-77
2022/03/17 00:53:02;;;;;;;30.83;17.85;;;10.10;99.90;;;;;;5017599;28;20098;-77
2022/03/17 00:55:28;;;;;;;28.02;18.02;;;10.20;99.90;;;;;;5017373;28;20468;-77
2022/03/17 00:57:54;;;;;;;27.92;18.08;;;10.20;99.90;;;;;;5017330;28;20056;-77
2022/03/17 01:00:21;;;;;;;31.13;17.20;;;10.10;99.90;;;;;;5017145;28;20053;-77
2022/03/17 01:02:53;;;;;;;32.15;16.65;;;10.10;99.90;;;;;;5034901;28;20120;-77
2022/03/17 01:05:19;;;;;;;30.63;17.90;;;10.20;99.90;;;;;;5034875;28;20051;-79
2022/03/17 01:07:45;;;;;;;28.35;16.65;;;10.10;99.90;;;;;;5017103;28;20323;-79
2022/03/17 01:10:15;;;;;;;30.45;17.83;;;10.10;99.90;;;;;;5017053;28;20077;-79
2022/03/17 01:12:43;;;;;;;29.70;18.45;;;10.10;99.90;;;;;;5016906;28;20045;-79
2022/03/17 01:15:11;;;;;;;43.67;17.38;;;10.00;99.90;;;;;;5034587;28;20049;-79
2022/03/17 01:17:37;;;;;;;35.72;17.38;;;10.00;99.90;;;;;;5016855;28;20045;-79
2022/03/17 01:20:05;;;;;;;29.08;17.20;;;10.00;99.90;;;;;;5016103;28;20369;-79
2022/03/17 01:22:31;;;;;;;31.70;18.40;;;10.00;99.90;;;;;;5034742;28;20103;-79
2022/03/17 01:24:57;;;;;;;28.00;16.95;;;10.00;99.90;;;;;;5034372;28;20061;-79
2022/03/17 01:27:23;;;;;;;28.20;17.58;;;10.00;99.90;;;;;;5016855;28;20057;-79
2022/03/17 01:29:53;;;;;;;26.55;17.10;;;10.00;99.90;;;;;;5034202;28;20436;-79
2022/03/17 01:32:20;;;;;;;27.30;16.77;;;9.90;99.90;;;;;;5034381;28;20049;-79
2022/03/17 01:34:46;;;;;;;32.55;18.23;;;10.00;99.90;;;;;;5016822;28;20045;-79
2022/03/17 01:37:12;;;;;;;26.98;17.48;;;10.00;99.90;;;;;;5034237;28;20543;-79
2022/03/17 01:39:38;;;;;;;28.50;17.90;;;10.00;99.90;;;;;;5016377;28;20069;-79
2022/03/17 01:42:06;;;;;;;30.48;17.45;;;9.90;99.90;;;;;;5016565;28;20049;-79
2022/03/17 01:44:33;;;;;;;30.65;18.90;;;9.90;99.90;;;;;;5016361;28;20129;-79
2022/03/17 01:49:43;;;;;;;30.27;19.05;;;10.00;99.90;;;;;;5034138;28;20049;-79
2022/03/17 01:52:09;;;;;;;32.92;18.80;;;10.00;99.90;;;;;;5033714;28;20132;-79
2022/03/17 01:54:36;;;;;;;28.83;17.67;;;9.90;99.90;;;;;;5016379;28;20041;-78
2022/03/17 01:57:04;;;;;;;32.00;18.85;;;9.90;99.90;;;;;;5033973;28;20129;-78
2022/03/17 01:59:32;;;;;;;30.33;18.35;;;9.90;99.90;;;;;;5016204;28;20073;-78
2022/03/17 02:01:58;;;;;;;32.63;18.90;;;9.90;99.90;;;;;;5016479;28;20060;-77
2022/03/17 02:04:24;;;;;;;34.03;17.77;;;9.90;99.90;;;;;;5033664;28;20404;-77
2022/03/17 02:06:51;;;;;;;29.00;18.05;;;10.00;99.90;;;;;;5016240;28;20041;-78
2022/03/17 02:09:18;;;;;;;29.60;17.30;;;9.90;99.90;;;;;;5033860;28;20052;-78
2022/03/17 02:14:28;;;;;;;27.10;16.73;;;9.90;99.90;;;;;;5016300;28;20148;-78
2022/03/17 02:16:54;;;;;;;30.48;17.67;;;9.90;99.90;;;;;;5033795;28;20477;-79
2022/03/17 02:19:23;;;;;;;29.35;18.05;;;9.90;99.90;;;;;;5033557;28;20048;-78
2022/03/17 02:21:49;;;;;;;32.00;19.50;;;9.90;99.90;;;;;;5033703;28;20033;-78
2022/03/17 02:27:02;;;;;;;32.70;19.90;;;9.80;99.90;;;;;;5033344;28;20464;-78
2022/03/17 02:29:30;;;;;;;33.78;20.65;;;9.80;99.90;;;;;;5033336;28;20487;-78
2022/03/17 02:31:57;;;;;;;33.95;20.30;;;9.70;99.90;;;;;;5020034;28;20089;-78
2022/03/17 02:34:22;;;;;;;34.33;20.13;;;9.60;99.90;;;;;;5020034;28;20436;-78
2022/03/17 02:36:50;;;;;;;35.00;20.17;;;9.60;99.90;;;;;;5019675;28;20079;-78
2022/03/17 02:39:19;;;;;;;30.80;20.42;;;9.70;99.90;;;;;;5019818;28;20121;-78
2022/03/17 02:41:45;;;;;;;30.42;18.08;;;9.60;99.90;;;;;;5019806;28;20049;-78
2022/03/17 02:44:11;;;;;;;34.05;18.95;;;9.60;99.90;;;;;;5019653;28;20056;-78
2022/03/17 02:46:37;;;;;;;31.25;17.80;;;9.60;99.90;;;;;;5019477;28;20099;-78
2022/03/17 02:49:03;;;;;;;34.05;19.98;;;9.60;99.90;;;;;;5019904;28;20072;-78
2022/03/17 02:51:29;;;;;;;31.95;19.00;;;9.70;99.90;;;;;;5019485;28;20050;-78
2022/03/17 02:53:55;;;;;;;32.70;19.38;;;9.70;99.90;;;;;;5037238;28;20107;-78
2022/03/17 02:56:20;;;;;;;30.90;20.02;;;9.70;99.90;;;;;;5037344;28;20040;-78
2022/03/17 02:58:47;;;;;;;31.67;18.02;;;9.70;99.90;;;;;;5037041;28;20056;-78
2022/03/17 03:01:12;;;;;;;30.75;19.80;;;9.70;99.90;;;;;;5019576;28;20124;-78
2022/03/17 03:03:38;;;;;;;29.33;19.48;;;9.80;99.90;;;;;;5037003;28;20133;-78
2022/03/17 03:06:04;;;;;;;33.35;19.80;;;9.70;99.90;;;;;;5037137;28;20053;-78
2022/03/17 03:08:30;;;;;;;34.95;20.00;;;9.70;99.90;;;;;;5037121;28;20037;-78
2022/03/17 03:10:57;;;;;;;36.80;19.83;;;9.70;99.90;;;;;;5019250;28;20087;-78
2022/03/17 03:13:22;;;;;;;34.85;19.85;;;9.80;99.90;;;;;;5019312;28;20053;-78
2022/03/17 03:15:50;;;;;;;35.78;21.83;;;9.80;99.90;;;;;;5019302;28;20503;-78
2022/03/17 03:18:17;;;;;;;32.67;20.27;;;9.80;99.90;;;;;;5036956;28;20125;-77
2022/03/17 03:20:43;;;;;;;31.15;18.95;;;9.80;99.90;;;;;;5036782;28;20492;-78
2022/03/17 03:23:09;;;;;;;34.58;20.55;;;9.80;99.90;;;;;;5036745;28;20037;-78
2022/03/17 03:25:34;;;;;;;33.90;21.20;;;9.80;99.90;;;;;;5019238;28;20077;-78
2022/03/17 03:28:09;;;;;;;33.08;20.25;;;9.90;99.90;;;;;;5019125;28;20050;-78
2022/03/17 03:30:36;;;;;;;34.85;20.52;;;9.80;99.90;;;;;;5018875;28;20057;-78
2022/03/17 03:33:07;;;;;;;32.33;19.92;;;9.90;99.90;;;;;;5019095;28;20084;-78
2022/03/17 03:38:19;;;;;;;34.72;20.63;;;9.80;99.90;;;;;;5036571;28;20073;-78
2022/03/17 03:40:45;;;;;;;32.83;20.92;;;9.80;99.90;;;;;;5018407;28;20050;-78
2022/03/17 03:43:11;;;;;;;35.83;20.63;;;9.90;99.90;;;;;;5035402;28;20049;-78
2022/03/17 03:45:37;;;;;;;39.35;21.98;;;9.80;99.90;;;;;;5018531;28;20411;-78
2022/03/17 03:48:04;;;;;;;34.13;21.15;;;9.70;99.90;;;;;;5018635;28;20077;-78
2022/03/17 03:50:30;;;;;;;37.05;22.20;;;9.60;99.90;;;;;;5036290;28;20041;-79
2022/03/17 03:52:57;;;;;;;40.13;22.70;;;9.60;99.90;;;;;;5018283;28;20055;-79
2022/03/17 03:55:23;;;;;;;35.38;22.00;;;9.50;99.90;;;;;;5036138;28;20067;-78
2022/03/17 03:57:49;;;;;;;38.47;23.23;;;9.50;99.90;;;;;;5018509;28;20388;-78
2022/03/17 04:00:36;;;;;;;41.83;24.42;;;9.40;99.90;;;;;;5018401;28;20049;-78
2022/03/17 04:03:05;;;;;;;40.78;24.88;;;9.30;99.90;;;;;;5035521;28;20055;-78
2022/03/17 04:05:34;;;;;;;35.97;21.23;;;9.30;99.90;;;;;;5018762;28;20132;-78
2022/03/17 04:08:00;;;;;;;41.60;25.60;;;9.30;99.90;;;;;;5035812;28;20480;-78
2022/03/17 04:10:27;;;;;;;42.30;26.30;;;9.20;99.90;;;;;;5035953;28;20077;-79
2022/03/17 04:12:53;;;;;;;47.70;26.10;;;9.20;99.90;;;;;;5035911;28;20068;-79
2022/03/17 04:15:19;;;;;;;46.03;26.10;;;9.20;99.90;;;;;;5035880;28;20072;-79
2022/03/17 04:17:44;;;;;;;46.13;28.67;;;9.20;99.90;;;;;;5018070;28;20469;-79
2022/03/17 04:20:10;;;;;;;48.88;29.08;;;9.20;99.90;;;;;;5035571;28;20042;-79
2022/03/17 04:22:37;;;;;;;44.83;27.88;;;9.20;99.90;;;;;;5017902;28;20481;-79
2022/03/17 04:25:03;;;;;;;47.13;28.52;;;9.20;99.90;;;;;;5035637;28;20103;-79
2022/03/17 04:27:29;;;;;;;41.35;25.25;;;9.20;99.90;;;;;;5018081;28;20057;-79
2022/03/17 04:29:55;;;;;;;48.58;28.70;;;9.20;99.90;;;;;;5017770;28;20064;-79
2022/03/17 04:32:20;;;;;;;50.60;30.27;;;9.20;99.90;;;;;;5035481;28;20037;-79
2022/03/17 04:34:46;;;;;;;46.58;24.63;;;9.20;99.90;;;;;;5017608;28;20481;-79
2022/03/17 04:37:12;;;;;;;49.45;28.27;;;9.20;99.90;;;;;;5035502;28;20064;-79
2022/03/17 04:39:37;;;;;;;50.70;29.00;;;9.20;99.90;;;;;;5035348;28;20059;-79
2022/03/17 04:42:03;;;;;;;51.03;28.65;;;9.20;99.90;;;;;;5017551;28;20124;-79
2022/03/17 04:44:29;;;;;;;51.42;27.65;;;9.30;99.90;;;;;;5035205;28;20076;-79
2022/03/17 04:46:55;;;;;;;50.45;27.65;;;9.20;99.90;;;;;;5035156;28;20556;-79
2022/03/17 04:49:20;;;;;;;27.73;15.60;;;9.30;99.90;;;;;;5035280;28;20057;-79
2022/03/17 04:51:46;;;;;;;16.45;9.10;;;9.20;99.90;;;;;;5035185;28;20047;-79
2022/03/17 04:54:12;;;;;;;14.68;8.40;;;9.00;99.90;;;;;;5034823;28;20045;-79
2022/03/17 04:56:37;;;;;;;14.02;8.38;;;8.80;99.90;;;;;;5035186;28;20052;-79
2022/03/17 04:59:03;;;;;;;16.10;8.82;;;8.80;99.90;;;;;;5035067;28;20041;-78
2022/03/17 05:01:28;;;;;;;13.45;7.75;;;8.70;99.90;;;;;;5034983;28;20034;-79
2022/03/17 05:03:54;;;;;;;12.20;7.90;;;8.60;99.90;;;;;;5034907;28;20120;-79
2022/03/17 05:06:20;;;;;;;14.10;8.00;;;8.50;99.90;;;;;;5034929;28;20401;-79
2022/03/17 05:08:46;;;;;;;10.98;6.80;;;8.50;99.90;;;;;;5034772;28;20408;-79
2022/03/17 05:11:13;;;;;;;11.43;6.30;;;8.40;99.90;;;;;;5034634;28;20485;-79
2022/03/17 05:13:39;;;;;;;11.02;6.43;;;8.30;99.90;;;;;;5034773;28;20120;-79
2022/03/17 05:16:06;;;;;;;13.57;7.88;;;8.30;99.90;;;;;;5034696;28;20088;-79
2022/03/17 05:18:31;;;;;;;11.23;7.20;;;8.30;99.90;;;;;;5034633;28;20049;-79
2022/03/17 05:20:57;;;;;;;13.68;7.07;;;8.20;99.90;;;;;;5034637;28;20037;-79
2022/03/17 05:23:23;;;;;;;13.52;7.13;;;8.10;99.90;;;;;;5034513;28;20396;-79
2022/03/17 05:25:50;;;;;;;13.05;7.38;;;8.10;99.90;;;;;;5034530;28;20492;-79
2022/03/17 05:28:16;;;;;;;15.32;8.77;;;8.10;99.90;;;;;;5034352;28;20037;-79
2022/03/17 05:30:43;;;;;;;21.73;9.75;;;8.10;99.90;;;;;;5034462;28;20196;-79
2022/03/17 05:33:11;;;;;;;23.75;10.52;;;8.00;99.90;;;;;;5034161;28;20456;-79
2022/03/17 05:35:38;;;;;;;23.90;11.82;;;8.00;99.90;;;;;;5034233;28;20128;-78
2022/03/17 05:38:04;;;;;;;28.42;12.50;;;7.90;99.90;;;;;;5034357;28;20156;-78
2022/03/17 05:40:30;;;;;;;16.88;8.02;;;7.90;99.90;;;;;;5034477;28;20495;-78
2022/03/17 05:43:01;;;;;;;18.48;6.40;;;7.90;99.90;;;;;;5034256;28;20048;-78
2022/03/17 05:45:28;;;;;;;12.02;4.43;;;7.90;99.90;;;;;;5016771;28;20049;-78
2022/03/17 05:47:59;;;;;;;15.73;4.20;;;7.80;99.90;;;;;;5034142;28;20128;-78
2022/03/17 05:50:27;;;;;;;22.23;5.03;;;7.80;99.90;;;;;;5034136;28;20132;-78
2022/03/17 05:52:52;;;;;;;13.80;3.53;;;7.80;99.90;;;;;;5034090;28;20087;-78
2022/03/17 05:55:21;;;;;;;14.18;3.92;;;7.70;99.90;;;;;;5033970;28;20082;-78
2022/03/17 05:57:48;;;;;;;12.35;3.70;;;7.70;99.90;;;;;;5033722;28;20045;-78
2022/03/17 06:00:16;;;;;;;14.63;3.90;;;7.70;99.90;;;;;;5032593;28;20049;-78
2022/03/17 06:02:42;;;;;;;13.02;3.53;;;7.70;99.90;;;;;;5033428;28;20049;-78
2022/03/17 06:05:09;;;;;;;20.23;3.92;;;7.70;99.90;;;;;;5032951;28;20045;-78
2022/03/17 06:07:43;;;;;;;12.32;3.17;;;7.60;99.90;;;;;;5015918;28;20045;-78
2022/03/17 06:10:18;;;;;;;13.25;3.65;;;7.70;99.90;;;;;;5033493;28;20508;-78
2022/03/17 06:12:44;;;;;;;13.05;3.92;;;7.60;99.90;;;;;;5033603;28;20042;-78
2022/03/17 06:15:11;;;;;;;10.80;3.20;;;7.60;99.90;;;;;;5033642;28;20124;-78
2022/03/17 06:17:41;;;;;;;13.35;4.57;;;7.60;99.90;;;;;;5034089;28;20124;-78
2022/03/17 06:20:09;;;;;;;11.57;2.85;;;7.60;99.90;;;;;;5015795;28;20049;-78
2022/03/17 06:22:46;;;;;;;10.27;1.90;;;7.60;99.90;;;;;;5033549;28;20042;-78
2022/03/17 06:25:14;;;;;;;9.30;2.10;;;7.60;99.90;;;;;;5015749;28;20053;-78
2022/03/17 06:27:42;;;;;;;13.20;2.08;;;7.60;99.90;;;;;;5015671;28;20049;-78
2022/03/17 06:30:10;;;;;;;10.88;2.33;;;7.50;99.90;;;;;;5033081;28;20094;-78
2022/03/17 06:32:39;;;;;;;9.38;1.42;;;7.60;99.90;;;;;;5016030;28;20052;-78
2022/03/17 06:35:08;;;;;;;11.73;1.63;;;7.60;99.90;;;;;;5033275;28;20480;-78
2022/03/17 06:37:33;;;;;;;10.32;1.60;;;7.60;99.90;;;;;;5015881;28;20045;-78
2022/03/17 06:39:59;;;;;;;10.80;2.75;;;7.60;99.90;;;;;;5033540;28;20361;-78
2022/03/17 06:42:24;;;;;;;13.75;1.73;;;7.50;99.90;;;;;;5015905;28;20162;-78
2022/03/17 06:44:50;;;;;;;12.38;1.67;;;7.60;99.90;;;;;;5015556;28;20074;-78
2022/03/17 06:47:16;;;;;;;14.07;1.75;;;7.50;99.90;;;;;;5033332;28;20166;-78
2022/03/17 06:49:41;;;;;;;9.00;1.80;;;7.50;99.90;;;;;;5033061;28;20487;-78
2022/03/17 06:52:07;;;;;;;11.43;1.60;;;7.50;99.90;;;;;;5033396;28;20050;-78
2022/03/17 06:54:32;;;;;;;7.80;1.20;;;7.50;99.90;;;;;;5033070;28;20072;-78
2022/03/17 06:56:59;;;;;;;9.02;0.98;;;7.50;99.90;;;;;;5033364;28;20050;-78
2022/03/17 06:59:25;;;;;;;8.25;1.25;;;7.60;99.90;;;;;;5033637;28;20049;-78
2022/03/17 07:01:51;;;;;;;10.43;1.13;;;7.60;99.90;;;;;;5033105;28;20052;-78
2022/03/17 07:04:16;;;;;;;6.60;1.40;;;7.60;99.90;;;;;;5032917;28;20099;-78
2022/03/17 07:06:42;;;;;;;10.15;1.20;;;7.60;99.90;;;;;;5033317;28;20045;-78
2022/03/17 07:09:07;;;;;;;9.82;2.28;;;7.60;99.90;;;;;;5032918;28;20049;-78
2022/03/17 07:11:33;;;;;;;6.50;1.20;;;7.60;99.90;;;;;;5033250;28;20042;-78
2022/03/17 07:13:59;;;;;;;5.70;1.40;;;7.60;99.90;;;;;;5032897;28;20048;-78
2022/03/17 07:16:24;;;;;;;6.65;1.23;;;7.60;99.90;;;;;;5034615;28;20042;-78
2022/03/17 07:18:50;;;;;;;6.50;1.15;;;7.60;99.90;;;;;;5036653;28;20057;-78
2022/03/17 07:21:16;;;;;;;8.98;2.20;;;7.60;99.90;;;;;;5019170;28;20045;-78
2022/03/17 07:23:42;;;;;;;8.05;1.40;;;7.50;99.90;;;;;;5036677;28;20124;-78
2022/03/17 07:26:08;;;;;;;10.77;1.63;;;7.60;99.90;;;;;;5036792;28;20046;-78
2022/03/17 07:28:34;;;;;;;12.40;1.48;;;7.50;99.90;;;;;;5036251;28;20156;-78
2022/03/17 07:30:59;;;;;;;8.18;1.30;;;7.60;99.90;;;;;;5036469;28;20060;-78
2022/03/17 07:33:25;;;;;;;11.07;1.67;;;7.60;99.90;;;;;;5036475;28;20400;-78
2022/03/17 07:35:50;;;;;;;12.27;1.60;;;7.60;99.90;;;;;;5018619;28;20127;-78
2022/03/17 07:38:16;;;;;;;13.50;1.73;;;7.60;99.90;;;;;;5036176;28;20080;-78
2022/03/17 07:40:43;;;;;;;15.70;1.73;;;7.60;99.90;;;;;;4995969;28;20141;-78
2022/03/17 07:43:08;;;;;;;11.68;2.70;;;7.60;99.90;;;;;;4998236;28;20039;-77
2022/03/17 07:45:34;;;;;;;12.65;3.00;;;7.60;99.90;;;;;;4979191;28;20046;-78
2022/03/17 07:48:00;;;;;;;12.52;1.70;;;7.60;99.90;;;;;;4979291;28;20074;-78
2022/03/17 07:50:26;;;;;;;19.30;3.55;;;7.60;99.90;;;;;;4996395;28;20097;-78
2022/03/17 07:52:52;;;;;;;16.38;2.72;;;7.50;99.90;;;;;;4979280;28;20053;-78
2022/03/17 07:55:18;;;;;;;13.50;2.35;;;7.50;99.90;;;;;;4996717;28;20394;-77
2022/03/17 07:57:44;;;;;;;18.45;2.42;;;7.60;99.90;;;;;;4996649;28;20042;-78
2022/03/17 08:00:11;;;;;;;18.52;3.10;;;7.60;99.90;;;;;;4996611;28;20118;-78
2022/03/17 08:02:37;;;;;;;21.30;3.38;;;7.60;99.90;;;;;;4978665;28;20054;-78
2022/03/17 08:05:04;;;;;;;12.27;2.95;;;7.60;99.90;;;;;;4978774;28;20078;-78
2022/03/17 08:07:30;;;;;;;15.93;2.13;;;7.60;99.90;;;;;;4980482;28;20129;-78
2022/03/17 08:09:57;;;;;;;11.23;2.00;;;7.60;99.90;;;;;;4987390;28;20050;-78
2022/03/17 08:12:26;;;;;;;15.32;2.47;;;7.70;99.90;;;;;;4978912;28;20046;-79
2022/03/17 08:14:53;;;;;;;16.88;2.22;;;7.60;99.90;;;;;;4978499;28;20050;-81
2022/03/17 08:17:18;;;;;;;12.73;1.98;;;7.70;99.90;;;;;;4978852;28;20097;-77
2022/03/17 08:19:44;;;;;;;12.50;2.22;;;7.70;99.90;;;;;;4978537;28;20385;-76
2022/03/17 08:22:10;;;;;;;16.10;2.60;;;7.60;99.90;;;;;;4995908;28;20039;-76
2022/03/17 08:24:35;;;;;;;9.40;2.42;;;7.70;99.90;;;;;;4995883;28;20050;-77
2022/03/17 08:27:02;;;;;;;8.90;1.50;;;7.60;99.90;;;;;;4978354;28;20048;-77
2022/03/17 08:29:29;;;;;;;7.47;1.40;;;7.60;99.90;;;;;;4977696;28;20069;-77
2022/03/17 08:31:55;;;;;;;8.13;1.27;;;7.60;99.90;;;;;;4995439;28;20042;-77
2022/03/17 08:34:21;;;;;;;9.48;1.52;;;7.60;99.90;;;;;;4995930;28;20053;-77
2022/03/17 08:36:47;;;;;;;10.10;1.40;;;7.60;99.90;;;;;;4995915;28;20035;-77
2022/03/17 08:39:12;;;;;;;9.15;1.42;;;7.60;99.90;;;;;;4978116;28;20596;-86
2022/03/17 08:41:38;;;;;;;8.32;1.50;;;7.70;99.90;;;;;;4995869;28;20133;-76
2022/03/17 08:44:04;;;;;;;7.15;1.65;;;7.70;99.90;;;;;;4995734;28;20050;-77
2022/03/17 08:49:21;;;;;;;13.55;2.13;;;7.80;99.90;;;;;;4978033;28;20055;-78
2022/03/17 08:51:47;;;;;;;;;;;7.80;99.90;;;;;;4978465;28;20046;-78
2022/03/17 08:54:14;;;;;;;12.48;3.20;;;7.80;99.90;;;;;;4995303;28;20349;-80
2022/03/17 08:56:40;;;;;;;18.23;2.05;;;7.80;99.90;;;;;;4977896;28;20057;-77
2022/03/17 08:59:05;;;;;;;14.35;2.13;;;7.80;99.90;;;;;;4977499;28;20038;-79
2022/03/17 09:01:31;;;;;;;16.80;3.17;;;7.80;99.90;;;;;;4995400;28;20509;-77
2022/03/17 09:03:57;;;;;;;20.50;2.60;;;7.70;99.90;;;;;;4992577;28;20067;-82
2022/03/17 09:06:22;;;;;;;8.65;2.10;;;7.80;99.90;;;;;;5009166;28;20064;-84
2022/03/17 09:08:48;;;;;;;11.50;2.60;;;7.80;99.90;;;;;;5009764;28;20060;-78
2022/03/17 09:11:14;;;;;;;12.30;2.10;;;7.90;99.90;;;;;;5016941;28;20076;-77
2022/03/17 09:13:41;;;;;;;13.00;2.13;;;7.90;99.90;;;;;;5008986;28;20132;-76
2022/03/17 09:16:06;;;;;;;11.57;1.58;;;7.90;99.90;;;;;;5016801;28;20041;-78
2022/03/17 09:18:33;;;;;;;13.50;2.08;;;8.00;99.90;;;;;;5016606;28;20389;-79
2022/03/17 09:21:00;;;;;;;15.02;3.03;;;8.00;99.90;;;;;;5026887;28;20088;-78
2022/03/17 09:23:26;;;;;;;17.80;2.15;;;8.00;99.90;;;;;;5033994;28;20415;-78
2022/03/17 09:25:53;;;;;;;10.93;1.80;;;8.10;99.90;;;;;;5033807;28;20512;-80
2022/03/17 09:28:19;;;;;;;12.23;1.60;;;8.10;99.90;;;;;;5034288;28;20080;-78
2022/03/17 09:30:44;;;;;;;12.63;2.13;;;8.10;99.90;;;;;;5034174;28;20041;-78
2022/03/17 09:33:10;;;;;;;17.05;2.40;;;8.20;99.90;;;;;;5016346;28;20488;-77
2022/03/17 09:35:36;;;;;;;12.73;2.17;;;8.40;99.90;;;;;;5016298;28;20049;-78
2022/03/17 09:38:04;;;;;;;11.80;2.08;;;8.50;99.90;;;;;;5005071;28;20388;-78
2022/03/17 09:40:30;;;;;;;15.52;2.38;;;8.70;99.90;;;;;;5013077;28;20482;-79
2022/03/17 09:43:18;;;;;;;18.75;2.13;;;8.80;99.90;;;;;;5014057;28;20069;-79
2022/03/17 09:45:43;;;;;;;16.15;3.33;;;8.80;99.90;;;;;;4995718;28;20064;-79
2022/03/17 09:48:14;;;;;;;13.45;2.15;;;9.00;99.90;;;;;;5014202;28;20046;-79
2022/03/17 09:50:41;;;;;;;14.40;2.40;;;9.10;99.90;;;;;;5014238;28;20034;-78
2022/03/17 09:53:07;;;;;;;11.70;2.25;;;9.00;99.90;;;;;;5013233;28;20038;-78
2022/03/17 09:55:34;;;;;;;10.77;2.42;;;9.10;99.90;;;;;;4995996;28;20519;-79
2022/03/17 09:58:02;;;;;;;12.52;2.17;;;9.10;99.90;;;;;;4996098;28;20046;-78
2022/03/17 10:00:47;;;;;;;18.70;3.10;;;9.10;99.90;;;;;;5013949;28;20038;-78
2022/03/17 10:03:19;;;;;;;15.63;2.35;;;9.20;99.90;;;;;;5013951;28;20059;-78
2022/03/17 10:05:46;;;;;;;14.57;1.98;;;9.30;99.90;;;;;;5013397;28;20074;-79
2022/03/17 10:08:13;;;;;;;9.90;1.95;;;9.40;99.90;;;;;;4995531;28;20038;-79
2022/03/17 10:10:42;;;;;;;14.48;1.70;;;9.50;99.90;;;;;;4996353;28;20061;-79
2022/03/17 10:13:20;;;;;;;11.30;2.15;;;9.50;99.90;;;;;;5003209;28;20093;-79
2022/03/17 10:15:49;;;;;;;14.05;3.97;;;9.50;99.90;;;;;;5013513;28;20050;-79
2022/03/17 10:18:26;;;;;;;8.63;1.65;;;9.40;99.90;;;;;;4995035;28;20085;-79
2022/03/17 10:21:09;;;;;;;19.05;2.80;;;9.50;99.90;;;;;;4995635;28;20159;-79
2022/03/17 10:23:49;;;;;;;16.65;3.00;;;9.70;99.90;;;;;;4994176;28;20045;-79
2022/03/17 10:26:35;;;;;;;9.30;1.80;;;9.70;99.90;;;;;;4996119;28;20042;-80
2022/03/17 10:29:19;;;;;;;11.70;2.13;;;9.90;99.90;;;;;;4995623;28;20404;-80
2022/03/17 10:32:01;;;;;;;17.88;2.55;;;9.80;99.90;;;;;;4995790;28;20042;-79
2022/03/17 10:34:36;;;;;;;13.57;2.40;;;9.80;99.90;;;;;;4996033;28;20077;-79
2022/03/17 10:37:19;;;;;;;11.20;2.10;;;9.90;99.90;;;;;;4995067;28;20063;-79
2022/03/17 10:39:49;;;;;;;9.95;1.92;;;10.00;99.90;;;;;;4994079;28;20085;-79
2022/03/17 10:42:23;;;;;;;12.75;2.13;;;10.20;99.90;;;;;;4993526;28;20057;-79
2022/03/17 10:44:51;;;;;;;12.63;1.92;;;10.30;99.90;;;;;;4993955;28;20061;-78
2022/03/17 10:47:38;;;;;;;13.40;2.78;;;10.30;99.90;;;;;;4995416;28;20378;-79
2022/03/17 10:50:19;;;;;;;12.02;1.75;;;10.50;99.90;;;;;;4995713;28;20053;-78
2022/03/17 10:52:58;;;;;;;15.82;4.50;;;10.70;99.90;;;;;;5017200;28;20042;-78
2022/03/17 10:55:26;;;;;;;12.20;1.92;;;10.60;99.90;;;;;;4999813;28;20136;-78
2022/03/17 10:58:09;;;;;;;13.07;1.85;;;10.50;99.90;;;;;;5017376;28;20046;-78
2022/03/17 11:00:45;;;;;;;17.35;2.03;;;10.40;99.90;;;;;;4999511;28;20054;-78
2022/03/17 11:03:10;;;;;;;10.73;2.15;;;10.40;99.90;;;;;;5017328;28;20092;-79
2022/03/17 11:05:36;;;;;;;11.32;1.67;;;10.40;99.90;;;;;;5016845;28;20441;-79
2022/03/17 11:08:02;;;;;;;13.23;2.45;;;10.40;99.90;;;;;;5016894;28;20037;-78
2022/03/17 11:10:28;;;;;;;14.07;2.42;;;10.20;99.90;;;;;;5016778;28;20397;-79
2022/03/17 11:12:55;;;;;;;13.65;2.88;;;10.30;99.90;;;;;;5017147;28;20485;-78
2022/03/17 11:15:30;;;;;;;12.00;2.15;;;10.40;99.90;;;;;;5016820;28;20053;-78
2022/03/17 11:18:04;;;;;;;12.35;2.63;;;10.60;99.90;;;;;;4999590;28;20041;-79
2022/03/17 11:20:31;;;;;;;11.20;2.25;;;10.60;99.90;;;;;;5001395;28;20049;-79
2022/03/17 11:23:09;;;;;;;11.93;1.95;;;10.50;99.90;;;;;;5036407;28;20050;-79
2022/03/17 11:25:35;;;;;;;8.10;2.10;;;10.70;99.90;;;;;;5018579;28;20053;-78
2022/03/17 11:28:03;;;;;;;10.45;1.77;;;10.60;99.90;;;;;;5018810;28;20053;-79
2022/03/17 11:30:43;;;;;;;15.98;2.70;;;10.70;99.90;;;;;;5018304;28;20049;-78
2022/03/17 11:33:28;;;;;;;16.27;3.05;;;10.90;99.90;;;;;;5018768;28;20061;-79
2022/03/17 11:35:59;;;;;;;22.02;2.55;;;10.80;99.90;;;;;;5036683;28;20049;-80
2022/03/17 11:38:28;;;;;;;13.20;2.13;;;10.90;99.90;;;;;;5018502;28;20378;-80
2022/03/17 11:41:16;;;;;;;15.00;2.55;;;10.90;99.90;;;;;;5036214;28;20108;-78
2022/03/17 11:43:58;;;;;;;12.18;2.33;;;11.10;99.90;;;;;;5035873;28;20037;-78
2022/03/17 11:46:34;;;;;;;10.05;2.03;;;10.90;99.90;;;;;;5036227;28;20148;-79
2022/03/17 11:49:20;;;;;;;11.63;2.15;;;11.00;99.90;;;;;;5036029;28;20049;-77
2022/03/17 11:51:53;;;;;;;10.93;2.13;;;11.10;99.90;;;;;;5036080;28;20046;-78
2022/03/17 11:54:19;;;;;;;20.67;2.63;;;11.20;99.90;;;;;;5035918;28;20049;-78
2022/03/17 11:56:45;;;;;;;14.32;2.33;;;11.20;99.90;;;;;;5018030;28;20404;-78
2022/03/17 11:59:16;;;;;;;13.10;2.25;;;11.10;99.90;;;;;;5036026;28;20080;-78
2022/03/17 12:01:47;;;;;;;16.60;2.92;;;11.20;99.90;;;;;;5017840;28;20080;-78
2022/03/17 12:04:31;;;;;;;16.85;2.33;;;11.20;99.90;;;;;;5034835;28;20048;-78
2022/03/17 12:07:12;;;;;;;8.98;1.70;;;11.10;99.90;;;;;;5018078;28;20046;-77
2022/03/17 12:09:38;;;;;;;16.95;1.65;;;11.20;99.90;;;;;;5009824;28;20041;-78
2022/03/17 12:12:29;;;;;;;15.68;2.88;;;11.30;99.90;;;;;;4997995;28;20050;-78
2022/03/17 12:14:57;;;;;;;11.70;1.80;;;11.30;99.90;;;;;;4997621;28;20054;-78
2022/03/17 12:17:25;;;;;;;14.75;2.25;;;11.20;99.90;;;;;;4997934;28;20096;-78
2022/03/17 12:20:08;;;;;;;12.40;2.50;;;11.10;99.90;;;;;;4998071;28;20048;-78
2022/03/17 12:22:39;;;;;;;14.97;2.10;;;11.20;99.90;;;;;;5015261;28;20042;-78
2022/03/17 12:25:22;;;;;;;10.45;1.90;;;11.30;99.90;;;;;;5015431;28;20100;-78
2022/03/17 12:27:53;;;;;;;13.95;2.10;;;11.30;99.90;;;;;;4997880;28;20050;-78
2022/03/17 12:30:20;;;;;;;15.98;2.35;;;11.40;99.90;;;;;;4997197;28;20450;-78
2022/03/17 12:32:53;;;;;;;19.58;2.03;;;11.30;99.90;;;;;;4997835;28;20056;-78
2022/03/17 12:35:21;;;;;;;11.25;3.03;;;11.40;99.90;;;;;;4997584;28;20054;-78
2022/03/17 12:37:47;;;;;;;9.52;1.20;;;11.50;99.90;;;;;;4996547;28;20050;-78
2022/03/17 12:40:20;;;;;;;15.93;3.22;;;11.40;99.90;;;;;;5014329;28;20049;-78
2022/03/17 12:42:48;;;;;;;13.57;1.95;;;11.30;99.90;;;;;;5014163;28;20050;-78
2022/03/17 12:45:16;;;;;;;11.60;2.65;;;11.20;99.90;;;;;;5015048;28;20406;-77
2022/03/17 12:47:46;;;;;;;12.20;2.03;;;11.10;99.90;;;;;;4997033;28;20048;-77
2022/03/17 12:50:19;;;;;;;19.13;3.13;;;11.30;99.90;;;;;;4997194;28;20052;-79
2022/03/17 12:52:47;;;;;;;9.48;1.50;;;11.30;99.90;;;;;;5015250;28;20046;-78
2022/03/17 12:55:15;;;;;;;11.10;2.60;;;11.30;99.90;;;;;;4997066;28;20585;-78
2022/03/17 12:57:42;;;;;;;8.18;2.17;;;11.30;99.90;;;;;;4997564;28;20046;-77
2022/03/17 13:00:10;;;;;;;10.80;2.47;;;11.20;99.90;;;;;;4996971;28;20110;-78